Egg Harbor Township, NJ (08234)

12:26 PM EDT on August 30, 2014 (GMT -0400)
Egg Harbor Township | Change Station
CLOSE
Current Station
Personal Weather Station
Location: Egg Harbor Township, NJ
Elevation: 89 ft
Nearby Weather Stations

Elev 89 ft 39.41 °N, 74.64 °W | Updated 10 minutes ago

Overcast
Overcast
80.2 °F
Feels Like 83 °F
N
1.1
Wind Variable Wind from North

Today
High -- | Low -- °F
--% Chance of Precip.
Yesterday
High -- | Low -- °F
Precip. -- in
6:24 AM 7:32 PM
Waxing Crescent, 23% visible
Pressure 30.25 in
Visibility 10.0 miles
Clouds Scattered Clouds 2600 ft
Overcast 3400 ft
Heat Index 83 °F
Dew Point 68 °F
Humidity 67%
Rainfall 0.00 in
Snow Depth Not available.
UV 3 out of 12
Pollen 9.30 out of 12
Ozone Good
PM2.5 Good
Flu Activity Not available.
METAR KACY 301554Z 15008KT 10SM SCT026 OVC034 23/17 A3025 RMK AO2 SLP244 T02330172

More Conditions Fewer Conditions

Pressure 30.25 in
Visibility 10.0 miles
Clouds Scattered Clouds 2600 ft
Overcast 3400 ft
Heat Index 83 °F
Dew Point 68 °F
Humidity 67%
Rainfall 0.00 in
Snow Depth Not available.
UV 3 out of 12
Pollen 9.30 out of 12
Ozone Good
PM2.5 Good
Flu Activity Not available.
METAR KACY 301554Z 15008KT 10SM SCT026 OVC034 23/17 A3025 RMK AO2 SLP244 T02330172

More Conditions Fewer Conditions

10-Day Weather Forecast

Almanac

Astronomy

Aug. 30, 2014 Rise Set
Actual Time 6:24 AM EDT 7:32 PM EDT
Civil Twilight 5:57 AM EDT 7:59 PM EDT
Nautical Twilight 5:24 AM EDT 8:32 PM EDT
Astronomical Twilight 4:49 AM EDT 9:07 PM EDT
Moon 11:08 AM EDT 10:06 PM EDT
Length of Visible Light 14h 02m
Length of Day
13h 07m
Tomorrow will be 2m 27s shorter.
Waxing Crescent, 23% of the Moon is Illuminated
Today
Waxing Crescent
Sep 2
First Quarter
Sep 8
Full
Sep 15
Last Quarter
Sep 24
New

Today's Extremes

State Highs State Lows

Community

WunderPhotos

Upload Photos

1,748,556 photos uploaded!

WunderBlogs® & News

Nearby

Air Quality

  Air Quality AQ Index Pollutant
Yesterday Good
OZONE
Yesterday Good
PM2.5
Current Good
PM2.5
Current Good
OZONE
Saturday Moderate
OZONE
Saturday Good
PM2.5
Sunday Moderate
PM2.5
Sunday Good
OZONE
Monday Moderate
PM2.5
Monday Good
OZONE

Snow Depth

Station Depth Elevation
No new snow has been reported.

Earthquake Activity

City Distance Mag. Time & Date
No recent earthquake activity has been reported nearby.
Minimum magnitude displayed is 2.5.

Coastal Water Temperatures

Place Temperature
Atlantic City, NJ 75.0 °F

Nearby Weather Stations